Time;durP1;ratioP1;P1;durP2;ratioP2;P2;SDS_P1;SDS_P2;PMS_P1;PMS_P2;Temp;Humidity;BMP_temperature;BMP_pressure;BME280_temperature;BME280_humidity;BME280_pressure;Samples;Min_cycle;Max_cycle;Signal;HPM_P1;HPM_P2
2022/07/16 00:02:38;;;;;;;8.00;3.42;;;;;;;;;;5084056;28;20535;-74
2022/07/16 00:05:04;;;;;;;5.43;3.08;;;;;;;;;;5072422;28;20020;-72
2022/07/16 00:07:30;;;;;;;7.05;3.45;;;;;;;;;;5084370;28;20078;-73
2022/07/16 00:09:58;;;;;;;8.85;3.42;;;;;;;;;;5072054;28;20025;-72
2022/07/16 00:12:24;;;;;;;5.15;3.08;;;;;;;;;;5083001;28;20437;-73
2022/07/16 00:14:50;;;;;;;4.95;3.08;;;;;;;;;;5072002;28;20052;-73
2022/07/16 00:17:16;;;;;;;5.30;3.40;;;;;;;;;;5081279;28;20032;-73
2022/07/16 00:19:42;;;;;;;5.70;3.20;;;;;;;;;;5072016;28;20066;-73
2022/07/16 00:22:08;;;;;;;5.22;3.00;;;;;;;;;;5085146;28;20035;-74
2022/07/16 00:24:34;;;;;;;11.57;3.50;;;;;;;;;;5078883;28;20044;-73
2022/07/16 00:27:01;;;;;;;7.18;3.10;;;;;;;;;;5077212;28;20370;-73
2022/07/16 00:29:27;;;;;;;6.60;3.22;;;;;;;;;;5085102;28;20028;-73
2022/07/16 00:31:54;;;;;;;7.93;3.38;;;;;;;;;;5071965;28;20058;-73
2022/07/16 00:34:20;;;;;;;8.93;3.20;;;;;;;;;;5084169;28;20400;-73
2022/07/16 00:36:47;;;;;;;5.43;2.72;;;;;;;;;;5071615;28;20016;-74
2022/07/16 00:39:13;;;;;;;6.40;2.92;;;;;;;;;;5086966;28;20025;-73
2022/07/16 00:41:40;;;;;;;8.00;3.25;;;;;;;;;;5077871;28;20024;-74
2022/07/16 00:44:07;;;;;;;9.20;3.13;;;;;;;;;;5085620;28;20037;-74
2022/07/16 00:46:34;;;;;;;6.88;3.47;;;;;;;;;;5078959;28;20056;-73
2022/07/16 00:49:00;;;;;;;5.88;3.47;;;;;;;;;;5078902;28;20029;-74
2022/07/16 00:51:26;;;;;;;8.93;3.07;;;;;;;;;;5089175;28;20128;-73
2022/07/16 00:53:53;;;;;;;6.30;2.90;;;;;;;;;;5087118;28;20056;-73
2022/07/16 00:56:19;;;;;;;8.45;3.22;;;;;;;;;;5078486;28;20089;-73
2022/07/16 00:58:46;;;;;;;7.40;3.20;;;;;;;;;;5083501;28;20024;-73
2022/07/16 01:01:13;;;;;;;6.15;3.40;;;;;;;;;;5082690;28;20025;-72
2022/07/16 01:03:40;;;;;;;11.13;2.97;;;;;;;;;;5091612;28;20107;-73
2022/07/16 01:06:07;;;;;;;9.77;3.60;;;;;;;;;;5079149;28;20104;-72
2022/07/16 01:08:34;;;;;;;6.18;3.10;;;;;;;;;;5086317;28;20679;-73
2022/07/16 01:11:01;;;;;;;5.20;3.05;;;;;;;;;;5083393;28;20482;-73
2022/07/16 01:13:28;;;;;;;8.70;3.78;;;;;;;;;;5079749;28;20032;-73
2022/07/16 01:15:54;;;;;;;8.27;3.42;;;;;;;;;;5076116;28;20020;-72
2022/07/16 01:18:20;;;;;;;8.40;3.30;;;;;;;;;;5089224;28;20035;-72
2022/07/16 01:20:46;;;;;;;11.95;4.30;;;;;;;;;;5105523;28;20053;-73
2022/07/16 01:23:18;;;;;;;11.10;3.63;;;;;;;;;;5083437;28;20476;-73
2022/07/16 01:25:44;;;;;;;7.78;3.40;;;;;;;;;;5075663;28;20025;-73
2022/07/16 01:28:10;;;;;;;7.65;3.47;;;;;;;;;;5079044;28;20027;-73
2022/07/16 01:30:36;;;;;;;7.45;3.55;;;;;;;;;;5074483;28;20025;-72
2022/07/16 01:33:18;;;;;;;6.03;3.25;;;;;;;;;;5074965;28;20021;-73
2022/07/16 01:35:44;;;;;;;8.95;3.60;;;;;;;;;;5080245;28;20579;-73
2022/07/16 01:38:11;;;;;;;9.07;3.38;;;;;;;;;;5087731;28;20024;-72
2022/07/16 01:40:37;;;;;;;8.40;3.55;;;;;;;;;;5078193;28;20028;-72
2022/07/16 01:43:03;;;;;;;8.55;3.42;;;;;;;;;;5084575;28;20024;-73
2022/07/16 01:45:29;;;;;;;7.50;3.60;;;;;;;;;;5087643;28;20042;-73
2022/07/16 01:47:55;;;;;;;5.15;3.47;;;;;;;;;;5077792;28;20027;-73
2022/07/16 01:50:21;;;;;;;11.02;3.53;;;;;;;;;;5084780;28;20028;-73
2022/07/16 01:52:47;;;;;;;10.80;4.03;;;;;;;;;;5089472;28;20043;-72
2022/07/16 01:55:13;;;;;;;11.43;3.72;;;;;;;;;;5079727;28;20028;-73
2022/07/16 01:57:39;;;;;;;12.18;4.05;;;;;;;;;;5093690;28;20020;-73
2022/07/16 02:00:05;;;;;;;8.00;4.05;;;;;;;;;;5078670;28;20028;-72
2022/07/16 02:02:31;;;;;;;8.10;3.75;;;;;;;;;;5077500;28;20032;-73
2022/07/16 02:04:57;;;;;;;14.25;4.35;;;;;;;;;;5088617;28;20020;-74
2022/07/16 02:07:23;;;;;;;10.18;4.30;;;;;;;;;;5074303;28;20112;-73
2022/07/16 02:09:50;;;;;;;7.57;4.13;;;;;;;;;;5075322;28;20060;-72
2022/07/16 02:12:16;;;;;;;8.05;3.88;;;;;;;;;;5086738;28;20040;-73
2022/07/16 02:14:42;;;;;;;7.25;4.03;;;;;;;;;;5085412;28;20069;-73
2022/07/16 02:17:08;;;;;;;7.10;3.95;;;;;;;;;;5076419;28;20021;-74
2022/07/16 02:19:34;;;;;;;9.70;4.45;;;;;;;;;;5078880;28;20025;-73
2022/07/16 02:22:01;;;;;;;9.85;4.10;;;;;;;;;;5082182;28;20095;-73
2022/07/16 02:24:28;;;;;;;7.95;3.95;;;;;;;;;;5073688;28;20449;-73
2022/07/16 02:26:54;;;;;;;8.13;4.05;;;;;;;;;;5073781;28;20028;-73
2022/07/16 02:29:20;;;;;;;9.45;4.28;;;;;;;;;;5077758;28;20489;-73
2022/07/16 02:31:46;;;;;;;11.27;3.97;;;;;;;;;;5083464;28;20496;-73
2022/07/16 02:34:13;;;;;;;7.60;4.28;;;;;;;;;;5079329;28;20029;-73
2022/07/16 02:36:39;;;;;;;14.13;4.78;;;;;;;;;;5079926;28;20055;-73
2022/07/16 02:39:05;;;;;;;13.13;4.93;;;;;;;;;;5077237;28;20036;-73
2022/07/16 02:41:31;;;;;;;13.75;4.63;;;;;;;;;;5074276;28;20024;-73
2022/07/16 02:43:57;;;;;;;13.50;4.50;;;;;;;;;;5088164;28;20031;-74
2022/07/16 02:46:23;;;;;;;7.40;4.20;;;;;;;;;;5073074;28;20055;-73
2022/07/16 02:48:49;;;;;;;12.55;4.93;;;;;;;;;;5072915;28;20047;-73
2022/07/16 02:51:15;;;;;;;13.23;5.32;;;;;;;;;;5087565;28;20049;-73
2022/07/16 02:53:42;;;;;;;11.23;5.25;;;;;;;;;;5081486;28;20032;-73
2022/07/16 02:56:08;;;;;;;8.90;4.32;;;;;;;;;;5080459;28;20024;-73
2022/07/16 02:58:34;;;;;;;8.98;4.32;;;;;;;;;;5075791;28;20111;-73
2022/07/16 03:01:00;;;;;;;15.27;4.13;;;;;;;;;;5073097;28;20469;-72
2022/07/16 03:03:26;;;;;;;11.82;4.70;;;;;;;;;;5084005;28;20023;-71
2022/07/16 03:05:52;;;;;;;10.93;4.07;;;;;;;;;;5092229;28;20071;-74
2022/07/16 03:08:18;;;;;;;6.97;3.67;;;;;;;;;;5077512;28;20035;-73
2022/07/16 03:10:45;;;;;;;11.45;4.28;;;;;;;;;;5074800;28;20103;-73
2022/07/16 03:13:11;;;;;;;8.57;3.70;;;;;;;;;;5080783;28;20442;-73
2022/07/16 03:15:37;;;;;;;11.35;3.72;;;;;;;;;;5087278;28;20025;-72
2022/07/16 03:18:03;;;;;;;6.97;3.58;;;;;;;;;;5083708;28;20028;-73
2022/07/16 03:20:29;;;;;;;9.05;3.95;;;;;;;;;;5079143;28;20111;-73
2022/07/16 03:22:56;;;;;;;7.10;3.45;;;;;;;;;;5075110;28;20040;-73
2022/07/16 03:25:22;;;;;;;6.82;3.80;;;;;;;;;;5079727;28;20027;-73
2022/07/16 03:27:48;;;;;;;5.32;3.38;;;;;;;;;;5072696;28;20100;-73
2022/07/16 03:30:15;;;;;;;9.23;3.85;;;;;;;;;;5072634;28;20448;-73
2022/07/16 03:32:41;;;;;;;7.40;3.70;;;;;;;;;;5072425;28;20032;-73
2022/07/16 03:35:08;;;;;;;6.65;3.70;;;;;;;;;;5083733;28;20020;-72
2022/07/16 03:38:57;;;;;;;7.72;3.58;;;;;;;;;;5088033;28;20394;-73
2022/07/16 03:40:20;;;;;;;5.80;3.30;;;;;;;;;;5080346;28;20039;-73
2022/07/16 03:42:46;;;;;;;7.63;3.30;;;;;;;;;;5080526;28;20033;-71
2022/07/16 03:45:12;;;;;;;5.57;3.30;;;;;;;;;;5091933;28;20063;-72
2022/07/16 03:47:38;;;;;;;7.88;3.63;;;;;;;;;;5087695;28;20077;-72
2022/07/16 03:50:04;;;;;;;7.47;3.33;;;;;;;;;;5079081;28;20134;-72
2022/07/16 03:52:30;;;;;;;7.25;3.70;;;;;;;;;;5088665;28;20505;-72
2022/07/16 03:54:56;;;;;;;6.18;3.53;;;;;;;;;;5079514;28;20020;-72
2022/07/16 03:57:23;;;;;;;10.52;4.35;;;;;;;;;;5075299;28;20028;-71
2022/07/16 03:59:49;;;;;;;5.50;3.78;;;;;;;;;;5100376;28;20043;-71
2022/07/16 04:02:15;;;;;;;7.40;4.22;;;;;;;;;;5087899;28;20040;-72
2022/07/16 04:04:41;;;;;;;6.65;3.63;;;;;;;;;;5094780;28;20024;-73
2022/07/16 04:07:07;;;;;;;6.05;4.15;;;;;;;;;;5074164;28;20120;-71
2022/07/16 04:09:33;;;;;;;5.80;3.28;;;;;;;;;;5076574;28;20021;-72
2022/07/16 04:11:59;;;;;;;5.03;3.40;;;;;;;;;;5075362;28;20492;-72
2022/07/16 04:14:25;;;;;;;5.30;3.22;;;;;;;;;;5082338;28;20469;-71
2022/07/16 04:16:51;;;;;;;6.90;3.50;;;;;;;;;;5082051;28;20020;-72
2022/07/16 04:19:18;;;;;;;6.20;3.67;;;;;;;;;;5090727;28;20033;-72
2022/07/16 04:21:44;;;;;;;5.53;3.20;;;;;;;;;;5088916;28;20139;-72
2022/07/16 04:24:10;;;;;;;5.90;3.45;;;;;;;;;;5084928;28;20028;-73
2022/07/16 04:26:36;;;;;;;10.13;3.42;;;;;;;;;;5076036;28;20020;-72
2022/07/16 04:29:02;;;;;;;5.75;3.33;;;;;;;;;;5077236;28;20380;-72
2022/07/16 04:31:28;;;;;;;7.43;3.55;;;;;;;;;;5098122;28;20069;-76
2022/07/16 04:33:54;;;;;;;5.07;3.38;;;;;;;;;;5082883;28;20107;-74
2022/07/16 04:36:20;;;;;;;5.88;3.45;;;;;;;;;;5085279;28;20063;-71
2022/07/16 04:38:46;;;;;;;8.52;3.80;;;;;;;;;;5086924;28;20033;-78
2022/07/16 04:41:12;;;;;;;5.07;3.42;;;;;;;;;;5093696;28;20025;-73
2022/07/16 04:43:39;;;;;;;5.65;3.38;;;;;;;;;;5094922;28;20413;-71
2022/07/16 04:46:05;;;;;;;4.93;3.30;;;;;;;;;;5096598;28;20485;-79
2022/07/16 04:48:31;;;;;;;5.95;3.50;;;;;;;;;;5094071;28;20118;-76
2022/07/16 04:50:57;;;;;;;5.30;3.50;;;;;;;;;;5090102;28;20060;-84
2022/07/16 04:53:23;;;;;;;5.18;3.80;;;;;;;;;;5099676;28;20052;-70
2022/07/16 04:55:49;;;;;;;7.43;3.67;;;;;;;;;;5096493;28;20024;-71
2022/07/16 04:58:15;;;;;;;6.05;3.67;;;;;;;;;;5092831;28;20032;-71
2022/07/16 05:00:41;;;;;;;6.72;3.55;;;;;;;;;;5088322;28;20059;-71
2022/07/16 05:03:08;;;;;;;7.18;3.45;;;;;;;;;;5094891;28;20024;-69
2022/07/16 05:05:35;;;;;;;6.65;4.13;;;;;;;;;;5086244;28;20063;-71
2022/07/16 05:08:02;;;;;;;7.00;3.95;;;;;;;;;;5093382;28;20055;-71
2022/07/16 05:10:29;;;;;;;6.55;3.75;;;;;;;;;;5095648;28;20431;-74
2022/07/16 05:12:55;;;;;;;7.03;3.85;;;;;;;;;;5085162;28;20131;-74
2022/07/16 05:15:21;;;;;;;7.93;3.58;;;;;;;;;;5079400;28;20083;-72
2022/07/16 05:17:47;;;;;;;4.75;3.42;;;;;;;;;;5091427;28;20421;-72
2022/07/16 05:20:13;;;;;;;8.32;3.60;;;;;;;;;;5079156;28;20048;-72
2022/07/16 05:22:49;;;;;;;5.43;3.40;;;;;;;;;;5099098;28;21316;-72
2022/07/16 05:25:15;;;;;;;5.07;3.33;;;;;;;;;;5091329;28;20077;-74
2022/07/16 05:27:42;;;;;;;6.93;3.40;;;;;;;;;;5087563;28;20028;-81
2022/07/16 05:30:11;;;;;;;5.82;3.70;;;;;;;;;;5091168;28;20079;-76
2022/07/16 05:32:38;;;;;;;5.90;3.13;;;;;;;;;;5086440;28;20036;-81
2022/07/16 05:35:04;;;;;;;4.85;3.42;;;;;;;;;;5093601;28;20031;-73
2022/07/16 05:37:30;;;;;;;7.85;3.75;;;;;;;;;;5085531;28;20056;-79
2022/07/16 05:39:57;;;;;;;7.38;3.40;;;;;;;;;;5085931;28;20024;-80
2022/07/16 05:42:23;;;;;;;9.63;3.80;;;;;;;;;;5088357;28;20035;-78
2022/07/16 05:44:49;;;;;;;6.82;3.65;;;;;;;;;;5088686;28;20033;-83
2022/07/16 05:47:15;;;;;;;6.85;3.75;;;;;;;;;;5092326;28;20055;-77
2022/07/16 05:49:41;;;;;;;8.07;3.83;;;;;;;;;;5087188;28;20024;-72
2022/07/16 05:52:07;;;;;;;8.93;3.53;;;;;;;;;;5096807;28;20077;-73
2022/07/16 05:54:33;;;;;;;6.70;3.78;;;;;;;;;;5081464;28;20044;-76
2022/07/16 05:56:59;;;;;;;9.27;3.92;;;;;;;;;;5097011;28;20043;-76
2022/07/16 05:59:25;;;;;;;6.07;3.60;;;;;;;;;;5084583;28;20449;-76
2022/07/16 06:01:51;;;;;;;7.45;3.60;;;;;;;;;;5079741;28;20016;-80
2022/07/16 06:04:17;;;;;;;9.50;3.95;;;;;;;;;;5081964;28;20082;-80
2022/07/16 06:06:44;;;;;;;14.18;4.68;;;;;;;;;;5087510;28;20027;-78
2022/07/16 06:09:10;;;;;;;7.95;4.05;;;;;;;;;;5086142;28;20020;-76
2022/07/16 06:11:36;;;;;;;10.00;4.47;;;;;;;;;;5094434;28;20024;-75
2022/07/16 06:14:03;;;;;;;12.98;4.60;;;;;;;;;;5088904;28;20111;-78
2022/07/16 06:16:29;;;;;;;7.90;4.40;;;;;;;;;;5086884;28;20424;-75
2022/07/16 06:18:55;;;;;;;9.68;4.68;;;;;;;;;;5089846;28;20047;-73
2022/07/16 06:21:21;;;;;;;11.20;4.70;;;;;;;;;;5082798;28;20028;-73
2022/07/16 06:23:47;;;;;;;10.55;4.65;;;;;;;;;;5076754;28;20035;-79
2022/07/16 06:26:13;;;;;;;7.57;4.10;;;;;;;;;;5089215;28;20022;-73
2022/07/16 06:28:39;;;;;;;6.97;3.75;;;;;;;;;;5095236;28;20028;-73
2022/07/16 06:31:05;;;;;;;13.68;4.85;;;;;;;;;;5092007;28;20050;-78
2022/07/16 06:33:31;;;;;;;7.80;3.88;;;;;;;;;;5093834;28;20080;-71
2022/07/16 06:35:57;;;;;;;17.60;4.40;;;;;;;;;;5082401;28;20025;-75
2022/07/16 06:38:24;;;;;;;11.00;4.40;;;;;;;;;;5086255;28;20028;-77
2022/07/16 06:40:50;;;;;;;15.10;4.68;;;;;;;;;;5078653;28;20029;-77
2022/07/16 06:43:16;;;;;;;11.73;5.30;;;;;;;;;;5085163;28;20051;-76
2022/07/16 06:45:43;;;;;;;13.00;5.40;;;;;;;;;;5083278;28;20401;-75
2022/07/16 06:48:09;;;;;;;11.63;4.85;;;;;;;;;;5084854;28;20024;-75
2022/07/16 06:50:35;;;;;;;11.13;5.40;;;;;;;;;;5089676;28;20107;-74
2022/07/16 06:53:01;;;;;;;11.52;5.57;;;;;;;;;;5078340;28;20608;-74
2022/07/16 06:55:27;;;;;;;11.70;4.95;;;;;;;;;;5084143;28;20089;-73
2022/07/16 06:57:53;;;;;;;10.00;5.75;;;;;;;;;;5082685;28;20016;-73
2022/07/16 07:00:19;;;;;;;9.57;5.18;;;;;;;;;;5079705;28;20505;-76
2022/07/16 07:02:45;;;;;;;9.02;4.72;;;;;;;;;;5081421;28;20055;-71
2022/07/16 07:05:11;;;;;;;8.65;4.80;;;;;;;;;;5083352;28;20027;-72
2022/07/16 07:07:38;;;;;;;12.32;5.93;;;;;;;;;;5081759;28;20034;-74
2022/07/16 07:10:04;;;;;;;9.00;5.40;;;;;;;;;;5081504;28;20027;-75
2022/07/16 07:12:30;;;;;;;7.60;4.60;;;;;;;;;;5076406;28;20103;-82
2022/07/16 07:14:56;;;;;;;8.13;4.60;;;;;;;;;;5085315;28;20024;-78
2022/07/16 07:17:22;;;;;;;7.13;5.10;;;;;;;;;;5080176;28;20035;-74
2022/07/16 07:19:49;;;;;;;10.93;6.05;;;;;;;;;;5078391;28;20151;-70
2022/07/16 07:22:15;;;;;;;7.07;5.07;;;;;;;;;;5081278;28;20433;-72
2022/07/16 07:24:41;;;;;;;7.97;5.22;;;;;;;;;;5082438;28;20079;-71
2022/07/16 07:27:07;;;;;;;8.38;5.50;;;;;;;;;;5093196;28;20423;-71
2022/07/16 07:29:33;;;;;;;9.40;5.10;;;;;;;;;;5088751;28;20039;-72
2022/07/16 07:31:59;;;;;;;9.02;5.50;;;;;;;;;;5093622;28;20024;-71
2022/07/16 07:34:25;;;;;;;8.10;4.85;;;;;;;;;;5092681;28;20115;-73
2022/07/16 07:36:51;;;;;;;9.93;6.45;;;;;;;;;;5091291;28;20024;-72
2022/07/16 07:39:17;;;;;;;8.63;5.70;;;;;;;;;;5090283;28;20040;-73
2022/07/16 07:41:43;;;;;;;7.85;5.00;;;;;;;;;;5092071;28;20454;-72
2022/07/16 07:44:10;;;;;;;7.47;4.88;;;;;;;;;;5091199;28;20106;-73
2022/07/16 07:46:36;;;;;;;11.80;5.25;;;;;;;;;;5080817;28;20035;-71
2022/07/16 07:49:03;;;;;;;6.75;5.30;;;;;;;;;;5091632;28;20458;-71
2022/07/16 07:51:29;;;;;;;6.85;5.20;;;;;;;;;;5090580;28;20382;-73
2022/07/16 07:53:55;;;;;;;5.97;4.55;;;;;;;;;;5087578;28;20058;-74
2022/07/16 07:56:21;;;;;;;6.85;4.40;;;;;;;;;;5085659;28;20036;-72
2022/07/16 07:58:47;;;;;;;8.02;4.75;;;;;;;;;;5087516;28;20123;-71
2022/07/16 08:01:13;;;;;;;9.63;4.75;;;;;;;;;;5084709;28;20039;-72
2022/07/16 08:03:39;;;;;;;6.60;4.15;;;;;;;;;;5097009;28;20027;-73
2022/07/16 08:06:05;;;;;;;10.25;8.20;;;;;;;;;;5099146;28;20032;-71
2022/07/16 08:08:31;;;;;;;8.02;5.90;;;;;;;;;;5092400;28;20034;-72
2022/07/16 08:10:57;;;;;;;8.25;7.28;;;;;;;;;;5090205;28;20470;-74
2022/07/16 08:13:23;;;;;;;5.15;4.20;;;;;;;;;;5087905;28;20497;-72
2022/07/16 08:15:49;;;;;;;9.73;5.60;;;;;;;;;;5093319;28;20042;-74
2022/07/16 08:18:16;;;;;;;9.30;5.80;;;;;;;;;;5090815;28;20051;-72
2022/07/16 08:20:42;;;;;;;6.20;4.90;;;;;;;;;;5094001;28;20028;-74
2022/07/16 08:23:08;;;;;;;7.18;4.88;;;;;;;;;;5089112;28;20469;-72
2022/07/16 08:25:46;;;;;;;5.75;5.03;;;;;;;;;;5091479;28;20031;-74
2022/07/16 08:28:13;;;;;;;7.75;5.85;;;;;;;;;;5095047;28;20470;-73
2022/07/16 08:30:39;;;;;;;6.78;5.95;;;;;;;;;;5095290;28;20112;-73
2022/07/16 08:33:05;;;;;;;11.50;6.82;;;;;;;;;;5086278;28;21856;-72
2022/07/16 08:35:31;;;;;;;8.75;6.68;;;;;;;;;;5078440;28;20036;-76
2022/07/16 08:37:57;;;;;;;8.95;5.80;;;;;;;;;;5086491;28;20063;-75
2022/07/16 08:40:24;;;;;;;10.73;7.35;;;;;;;;;;5086774;28;20058;-74
2022/07/16 08:42:51;;;;;;;10.57;6.95;;;;;;;;;;5091144;28;20024;-76
2022/07/16 08:45:18;;;;;;;8.55;5.90;;;;;;;;;;5084924;28;20024;-70
2022/07/16 08:47:44;;;;;;;8.45;5.35;;;;;;;;;;5087805;28;20024;-70
2022/07/16 08:50:11;;;;;;;7.95;5.18;;;;;;;;;;5084223;28;20029;-68
2022/07/16 08:52:44;;;;;;;8.68;4.65;;;;;;;;;;5080570;28;20056;-70
2022/07/16 08:55:11;;;;;;;7.88;4.75;;;;;;;;;;5078305;28;20046;-71
2022/07/16 08:57:38;;;;;;;5.13;3.65;;;;;;;;;;5101466;28;20028;-73
2022/07/16 09:00:05;;;;;;;5.20;3.67;;;;;;;;;;5096916;28;20364;-71
2022/07/16 09:02:31;;;;;;;7.28;4.13;;;;;;;;;;5091439;28;20020;-71
2022/07/16 09:04:59;;;;;;;6.93;4.40;;;;;;;;;;5085073;28;20024;-70
2022/07/16 09:07:25;;;;;;;6.90;3.50;;;;;;;;;;5085411;28;20366;-70
2022/07/16 09:09:51;;;;;;;5.22;3.30;;;;;;;;;;5090386;28;20397;-70
2022/07/16 09:12:37;;;;;;;5.22;3.50;;;;;;;;;;5090028;28;20036;-75
2022/07/16 09:15:32;;;;;;;6.88;4.20;;;;;;;;;;5091279;28;20476;-74
2022/07/16 09:18:07;;;;;;;12.00;4.55;;;;;;;;;;5072424;28;20067;-71
2022/07/16 09:20:34;;;;;;;8.13;3.42;;;;;;;;;;5090832;28;20118;-74
2022/07/16 09:23:00;;;;;;;4.30;3.00;;;;;;;;;;5085915;28;20405;-74
2022/07/16 09:25:26;;;;;;;5.88;3.45;;;;;;;;;;5082337;28;20062;-80
2022/07/16 09:27:59;;;;;;;5.47;3.83;;;;;;;;;;5086209;28;20115;-69
2022/07/16 09:30:26;;;;;;;8.98;4.45;;;;;;;;;;5099853;28;20110;-74
2022/07/16 09:32:52;;;;;;;6.45;3.95;;;;;;;;;;5094653;28;20031;-73
2022/07/16 09:35:19;;;;;;;7.13;4.40;;;;;;;;;;5098328;28;20028;-75
2022/07/16 09:37:49;;;;;;;10.43;3.85;;;;;;;;;;5091039;28;20027;-73
2022/07/16 09:40:28;;;;;;;21.02;6.75;;;;;;;;;;5088245;28;20110;-76
2022/07/16 09:42:54;;;;;;;33.83;8.80;;;;;;;;;;5095615;28;20024;-71
2022/07/16 09:45:21;;;;;;;16.60;5.55;;;;;;;;;;5092354;28;20032;-74
2022/07/16 09:47:47;;;;;;;53.17;8.82;;;;;;;;;;5089599;28;20020;-79
2022/07/16 09:50:13;;;;;;;32.15;6.10;;;;;;;;;;5091752;28;20476;-71
2022/07/16 09:52:39;;;;;;;14.25;5.15;;;;;;;;;;5083942;28;20045;-76
2022/07/16 09:55:06;;;;;;;5.55;3.50;;;;;;;;;;5081717;28;20020;-74
2022/07/16 09:57:32;;;;;;;7.78;3.53;;;;;;;;;;5084453;28;20040;-70
2022/07/16 09:59:59;;;;;;;6.78;4.50;;;;;;;;;;5078959;28;20020;-73
2022/07/16 10:02:25;;;;;;;4.75;3.67;;;;;;;;;;5089370;28;20035;-76
2022/07/16 10:04:52;;;;;;;17.20;4.93;;;;;;;;;;5081303;28;20086;-71
2022/07/16 10:07:18;;;;;;;14.27;4.80;;;;;;;;;;5080910;28;20071;-71
2022/07/16 10:09:45;;;;;;;13.60;4.40;;;;;;;;;;5100123;28;20028;-72
2022/07/16 10:12:12;;;;;;;6.82;3.60;;;;;;;;;;5084637;28;20064;-70
2022/07/16 10:14:56;;;;;;;4.25;3.33;;;;;;;;;;5080318;28;20099;-72
2022/07/16 10:17:23;;;;;;;5.88;3.60;;;;;;;;;;5081646;28;20035;-71
2022/07/16 10:20:05;;;;;;;5.65;3.25;;;;;;;;;;5096863;28;20051;-72
2022/07/16 10:22:35;;;;;;;6.50;3.50;;;;;;;;;;5075214;28;20072;-72
2022/07/16 10:25:09;;;;;;;6.50;3.40;;;;;;;;;;5082096;28;20028;-70
2022/07/16 10:27:36;;;;;;;4.93;3.40;;;;;;;;;;5088189;28;20037;-73
2022/07/16 10:30:15;;;;;;;5.70;3.78;;;;;;;;;;5092378;28;20377;-71
2022/07/16 10:33:00;;;;;;;6.10;3.53;;;;;;;;;;5086549;27;20486;-72
2022/07/16 10:35:33;;;;;;;6.15;3.50;;;;;;;;;;5080548;28;20035;-71
2022/07/16 10:37:59;;;;;;;;;;;;;;;;;;5083301;28;20067;-72
2022/07/16 10:40:25;;;;;;;5.55;3.35;;;;;;;;;;5086305;28;19904;-72
2022/07/16 10:43:09;;;;;;;5.82;3.58;;;;;;;;;;5079331;28;20038;-71
2022/07/16 10:45:55;;;;;;;4.85;3.45;;;;;;;;;;5083527;28;20031;-73
2022/07/16 10:48:21;;;;;;;4.97;3.35;;;;;;;;;;5079154;28;20024;-70
2022/07/16 10:51:06;;;;;;;4.30;3.33;;;;;;;;;;5089533;28;20016;-71
2022/07/16 10:53:52;;;;;;;5.15;3.50;;;;;;;;;;5073464;28;20131;-71
2022/07/16 10:56:34;;;;;;;5.30;3.50;;;;;;;;;;5091323;28;20027;-72
2022/07/16 10:59:04;;;;;;;4.97;3.38;;;;;;;;;;5073539;28;20032;-71
2022/07/16 11:01:30;;;;;;;5.05;3.20;;;;;;;;;;5081235;28;20032;-70
2022/07/16 11:03:56;;;;;;;6.20;3.40;;;;;;;;;;5102965;28;20089;-70
2022/07/16 11:06:23;;;;;;;6.40;3.50;;;;;;;;;;5089075;28;20031;-73
2022/07/16 11:08:52;;;;;;;4.95;3.33;;;;;;;;;;5074296;28;20013;-72
2022/07/16 11:11:19;;;;;;;5.40;3.15;;;;;;;;;;5073892;28;20428;-73
2022/07/16 11:13:46;;;;;;;5.40;3.50;;;;;;;;;;5086045;28;20072;-71
2022/07/16 11:16:12;;;;;;;4.65;3.30;;;;;;;;;;5089866;28;20089;-71
2022/07/16 11:18:39;;;;;;;5.43;3.53;;;;;;;;;;5080671;28;20382;-73
2022/07/16 11:21:06;;;;;;;5.10;3.08;;;;;;;;;;5075702;28;20035;-73
2022/07/16 11:23:46;;;;;;;5.88;3.65;;;;;;;;;;5082713;28;20107;-73
2022/07/16 11:26:13;;;;;;;7.03;3.53;;;;;;;;;;5083719;28;20085;-73
2022/07/16 11:28:50;;;;;;;4.18;3.47;;;;;;;;;;5084942;28;20482;-73
2022/07/16 11:31:23;;;;;;;5.05;2.95;;;;;;;;;;5085726;28;20026;-71
2022/07/16 11:33:49;;;;;;;5.25;3.40;;;;;;;;;;5092215;28;20032;-73
2022/07/16 11:36:15;;;;;;;5.60;3.40;;;;;;;;;;5078396;28;20032;-71
2022/07/16 11:38:41;;;;;;;6.25;3.40;;;;;;;;;;5082544;28;20436;-73
2022/07/16 11:41:08;;;;;;;4.57;3.22;;;;;;;;;;5073036;28;20020;-72
2022/07/16 11:43:34;;;;;;;8.27;3.35;;;;;;;;;;5078340;28;20024;-72
2022/07/16 11:46:00;;;;;;;5.88;3.50;;;;;;;;;;5082433;28;20020;-73
2022/07/16 11:48:35;;;;;;;5.68;3.38;;;;;;;;;;5076512;28;20111;-73
2022/07/16 11:51:06;;;;;;;5.63;3.28;;;;;;;;;;5084783;28;20129;-73
2022/07/16 11:53:34;;;;;;;5.82;3.10;;;;;;;;;;5083726;28;20037;-73
2022/07/16 11:56:01;;;;;;;6.72;3.10;;;;;;;;;;5087930;28;20040;-71
2022/07/16 11:58:27;;;;;;;5.07;3.53;;;;;;;;;;5086136;28;20469;-73
2022/07/16 12:00:53;;;;;;;5.30;3.20;;;;;;;;;;5081360;28;20028;-73
2022/07/16 12:03:19;;;;;;;8.90;3.60;;;;;;;;;;5075826;28;20507;-73
2022/07/16 12:05:45;;;;;;;4.22;3.38;;;;;;;;;;5076255;28;20031;-73
2022/07/16 12:08:11;;;;;;;5.35;3.00;;;;;;;;;;5086212;28;20548;-73
2022/07/16 12:10:38;;;;;;;5.38;3.38;;;;;;;;;;5081128;28;20028;-72
2022/07/16 12:13:05;;;;;;;7.18;3.78;;;;;;;;;;5078424;28;20424;-71
2022/07/16 12:15:31;;;;;;;6.60;3.75;;;;;;;;;;5072524;28;20023;-73
2022/07/16 12:18:11;;;;;;;5.40;3.35;;;;;;;;;;5078208;28;20081;-71
2022/07/16 12:20:37;;;;;;;4.53;3.20;;;;;;;;;;5076361;28;20407;-72
2022/07/16 12:23:11;;;;;;;5.55;3.72;;;;;;;;;;5075381;28;20073;-71
2022/07/16 12:25:40;;;;;;;4.75;3.42;;;;;;;;;;5080004;28;20104;-71
2022/07/16 12:28:10;;;;;;;5.82;3.58;;;;;;;;;;5090337;28;20047;-73
2022/07/16 12:30:38;;;;;;;6.55;3.30;;;;;;;;;;5087707;28;20020;-71
2022/07/16 12:33:05;;;;;;;7.03;4.13;;;;;;;;;;5083945;28;20051;-72
2022/07/16 12:35:40;;;;;;;6.80;3.72;;;;;;;;;;5073218;28;20043;-73
2022/07/16 12:38:07;;;;;;;6.68;3.30;;;;;;;;;;5084105;28;20107;-71
2022/07/16 12:40:33;;;;;;;4.35;3.38;;;;;;;;;;5087996;28;20025;-73
2022/07/16 12:43:03;;;;;;;4.80;3.47;;;;;;;;;;5086243;28;20047;-72
2022/07/16 12:45:29;;;;;;;5.13;3.53;;;;;;;;;;5083684;28;20043;-73
2022/07/16 12:47:55;;;;;;;5.43;3.40;;;;;;;;;;5091616;28;20023;-72
2022/07/16 12:50:21;;;;;;;6.65;3.80;;;;;;;;;;5096858;28;20035;-73
2022/07/16 12:52:47;;;;;;;5.15;3.50;;;;;;;;;;5091742;28;20051;-73
2022/07/16 13:00:43;;;;;;;6.93;4.10;;;;;;;;;;5091845;28;20035;-73
2022/07/16 13:03:09;;;;;;;5.07;3.45;;;;;;;;;;5087147;28;20389;-73
2022/07/16 13:05:35;;;;;;;5.18;3.20;;;;;;;;;;5078923;28;20119;-72
2022/07/16 13:08:01;;;;;;;5.60;3.45;;;;;;;;;;5086161;28;20024;-74
2022/07/16 13:10:27;;;;;;;5.72;3.30;;;;;;;;;;5090692;28;20024;-73
2022/07/16 13:12:53;;;;;;;6.20;3.50;;;;;;;;;;5090542;28;20090;-73
2022/07/16 13:15:19;;;;;;;6.97;3.63;;;;;;;;;;5090988;28;20031;-72
2022/07/16 13:17:45;;;;;;;5.50;3.40;;;;;;;;;;5083043;28;20038;-73
2022/07/16 13:20:13;;;;;;;5.35;3.50;;;;;;;;;;5093491;28;20017;-73
2022/07/16 13:22:39;;;;;;;7.15;3.30;;;;;;;;;;5096327;28;20034;-70
2022/07/16 13:25:06;;;;;;;7.18;3.50;;;;;;;;;;5091176;28;20373;-72
2022/07/16 13:27:32;;;;;;;6.28;3.63;;;;;;;;;;5091268;28;20074;-73
2022/07/16 13:29:58;;;;;;;8.23;3.78;;;;;;;;;;5075348;28;20031;-72
2022/07/16 13:32:24;;;;;;;5.03;3.42;;;;;;;;;;5096101;28;20378;-72
2022/07/16 13:34:50;;;;;;;5.85;3.67;;;;;;;;;;5090937;28;20020;-72
2022/07/16 13:37:16;;;;;;;7.00;3.42;;;;;;;;;;5082599;28;20055;-71
2022/07/16 13:39:42;;;;;;;4.97;3.65;;;;;;;;;;5094101;28;20442;-73
2022/07/16 13:42:08;;;;;;;6.30;3.55;;;;;;;;;;5083323;28;20028;-73
2022/07/16 13:44:34;;;;;;;5.43;3.47;;;;;;;;;;5087190;28;20027;-73
2022/07/16 13:47:00;;;;;;;9.77;3.70;;;;;;;;;;5095090;28;20031;-74
2022/07/16 13:49:26;;;;;;;7.25;3.80;;;;;;;;;;5088608;28;20033;-75
2022/07/16 13:51:53;;;;;;;5.30;3.50;;;;;;;;;;5096830;27;20047;-75
2022/07/16 13:54:19;;;;;;;7.55;3.67;;;;;;;;;;5095731;28;20039;-70
2022/07/16 13:56:45;;;;;;;7.22;3.83;;;;;;;;;;5095252;28;20051;-71
2022/07/16 13:59:12;;;;;;;8.60;3.35;;;;;;;;;;5086270;28;20110;-75
2022/07/16 14:01:40;;;;;;;6.35;3.50;;;;;;;;;;5092778;28;20111;-75
2022/07/16 14:04:09;;;;;;;6.15;3.33;;;;;;;;;;5090317;28;20453;-75
2022/07/16 14:06:36;;;;;;;7.53;3.75;;;;;;;;;;5089482;28;20516;-75
2022/07/16 14:09:02;;;;;;;7.60;3.78;;;;;;;;;;5093556;28;20057;-75
2022/07/16 14:11:28;;;;;;;8.38;4.03;;;;;;;;;;5091258;28;20112;-72
2022/07/16 14:13:54;;;;;;;7.03;3.40;;;;;;;;;;5085303;28;20074;-71
2022/07/16 14:16:20;;;;;;;6.75;3.60;;;;;;;;;;5095349;28;20114;-72
2022/07/16 14:18:46;;;;;;;4.95;3.33;;;;;;;;;;5092714;28;20028;-71
2022/07/16 14:21:13;;;;;;;5.32;3.35;;;;;;;;;;5094248;28;20103;-71
2022/07/16 14:23:40;;;;;;;5.05;3.78;;;;;;;;;;5086654;28;20039;-73
2022/07/16 14:26:07;;;;;;;7.40;3.42;;;;;;;;;;5089955;28;20035;-72
2022/07/16 14:28:33;;;;;;;5.45;3.50;;;;;;;;;;5084612;28;20040;-71
2022/07/16 14:30:59;;;;;;;5.97;3.40;;;;;;;;;;5083331;28;20026;-73
2022/07/16 14:33:25;;;;;;;5.22;3.42;;;;;;;;;;5089756;28;20039;-74
2022/07/16 14:35:51;;;;;;;4.35;3.10;;;;;;;;;;5088605;28;20063;-72
2022/07/16 14:38:17;;;;;;;8.75;3.65;;;;;;;;;;5084018;28;20028;-80
2022/07/16 14:40:43;;;;;;;9.55;3.53;;;;;;;;;;5081903;28;20023;-77
2022/07/16 14:43:09;;;;;;;8.88;3.80;;;;;;;;;;5077718;28;20024;-78
2022/07/16 14:45:35;;;;;;;5.63;3.38;;;;;;;;;;5082822;28;20029;-76
2022/07/16 14:48:01;;;;;;;7.80;3.58;;;;;;;;;;5082236;28;20107;-77